createdAt,value
2019-03-04T00:01:30.799Z,4.57
2019-03-04T00:03:57.135Z,4.60
2019-03-04T00:06:23.208Z,5.00
2019-03-04T00:08:49.364Z,4.60
2019-03-04T00:11:16.115Z,4.67
2019-03-04T00:13:42.450Z,4.57
2019-03-04T00:16:08.537Z,4.50
2019-03-04T00:18:34.920Z,5.00
2019-03-04T00:21:01.342Z,4.70
2019-03-04T00:23:27.798Z,4.40
2019-03-04T00:25:53.840Z,4.20
2019-03-04T00:28:20.636Z,4.67
2019-03-04T00:30:46.960Z,4.30
2019-03-04T00:33:13.372Z,4.93
2019-03-04T00:35:39.829Z,4.20
2019-03-04T00:38:05.872Z,4.43
2019-03-04T00:40:31.945Z,4.13
2019-03-04T00:42:58.363Z,3.67
2019-03-04T00:45:24.824Z,4.70
2019-03-04T00:47:51.583Z,3.70
2019-03-04T00:50:19.528Z,4.30
2019-03-04T00:52:46.298Z,3.93
2019-03-04T00:55:12.436Z,3.50
2019-03-04T00:57:39.147Z,4.13
2019-03-04T01:00:15.620Z,3.57
2019-03-04T01:02:42.975Z,3.83
2019-03-04T01:05:09.493Z,5.33
2019-03-04T01:07:36.246Z,3.83
2019-03-04T01:10:06.465Z,4.17
2019-03-04T01:12:33.204Z,3.37
2019-03-04T01:14:59.321Z,3.80
2019-03-04T01:17:25.730Z,4.00
2019-03-04T01:19:51.849Z,4.60
2019-03-04T01:22:18.852Z,3.30
2019-03-04T01:24:44.896Z,3.43
2019-03-04T01:27:11.312Z,3.53
2019-03-04T01:29:37.601Z,3.20
2019-03-04T01:32:03.952Z,3.03
2019-03-04T01:34:30.684Z,3.07
2019-03-04T01:36:56.747Z,4.00
2019-03-04T01:39:22.828Z,3.40
2019-03-04T01:41:49.190Z,3.43
2019-03-04T01:44:15.900Z,3.03
2019-03-04T01:46:42.233Z,2.90
2019-03-04T01:49:08.284Z,3.30
2019-03-04T01:51:34.695Z,2.33
2019-03-04T01:54:01.107Z,2.73
2019-03-04T01:56:27.169Z,3.17
2019-03-04T01:58:53.675Z,3.83
2019-03-04T02:01:20.416Z,2.53
2019-03-04T02:03:46.834Z,3.43
2019-03-04T02:06:13.280Z,2.63
2019-03-04T02:08:39.732Z,3.00
2019-03-04T02:11:06.147Z,2.63
2019-03-04T02:13:32.195Z,2.43
2019-03-04T02:15:58.606Z,2.70
2019-03-04T02:18:24.644Z,2.53
2019-03-04T02:20:51.120Z,3.20
2019-03-04T02:23:17.206Z,2.77
2019-03-04T02:25:47.097Z,2.40
2019-03-04T02:28:13.831Z,2.50
2019-03-04T02:30:40.164Z,2.80
2019-03-04T02:33:06.305Z,1.80
2019-03-04T02:35:32.808Z,2.20
2019-03-04T02:37:58.905Z,2.37
2019-03-04T02:40:25.440Z,2.10
2019-03-04T02:42:51.496Z,2.57
2019-03-04T02:45:18.514Z,2.73
2019-03-04T02:47:45.768Z,2.53
2019-03-04T02:50:14.209Z,2.10
2019-03-04T02:52:40.925Z,2.50
2019-03-04T02:55:08.040Z,2.27
2019-03-04T02:57:34.477Z,2.30
2019-03-04T03:00:01.444Z,2.30
2019-03-04T03:02:27.492Z,2.47
2019-03-04T03:04:53.802Z,2.10
2019-03-04T03:07:19.880Z,2.70
2019-03-04T03:09:45.931Z,2.43
2019-03-04T03:12:12.587Z,2.40
2019-03-04T03:14:38.674Z,2.00
2019-03-04T03:17:05.140Z,2.03
2019-03-04T03:19:31.589Z,2.03
2019-03-04T03:21:57.668Z,2.30
2019-03-04T03:24:24.029Z,1.97
2019-03-04T03:26:50.769Z,1.97
2019-03-04T03:29:16.823Z,2.30
2019-03-04T03:31:42.925Z,1.80
2019-03-04T03:34:08.969Z,1.97
2019-03-04T03:36:35.685Z,2.00
2019-03-04T03:39:04.756Z,2.43
2019-03-04T03:41:31.509Z,2.00
2019-03-04T03:43:57.557Z,1.77
2019-03-04T03:46:24.006Z,1.97
2019-03-04T03:48:50.709Z,1.90
2019-03-04T03:51:17.445Z,1.90
2019-03-04T03:53:43.777Z,2.13
2019-03-04T03:56:10.192Z,2.30
2019-03-04T03:58:36.764Z,1.80
2019-03-04T04:01:03.174Z,1.53
2019-03-04T04:03:29.752Z,1.70
2019-03-04T04:05:56.144Z,2.03
2019-03-04T04:08:22.223Z,2.33
2019-03-04T04:10:48.596Z,1.67
2019-03-04T04:13:14.681Z,1.53
2019-03-04T04:15:41.260Z,2.10
2019-03-04T04:18:07.591Z,1.77
2019-03-04T04:20:33.718Z,1.70
2019-03-04T04:22:59.767Z,1.80
2019-03-04T04:25:26.197Z,1.60
2019-03-04T04:27:52.902Z,1.80
2019-03-04T04:30:21.189Z,1.70
2019-03-04T04:32:47.277Z,1.70
2019-03-04T04:35:13.426Z,1.67
2019-03-04T04:37:39.537Z,2.00
2019-03-04T04:40:07.783Z,1.17
2019-03-04T04:42:34.179Z,1.80
2019-03-04T04:45:00.899Z,1.90
2019-03-04T04:47:27.009Z,1.50
2019-03-04T04:49:53.295Z,1.80
2019-03-04T04:52:19.684Z,2.70
2019-03-04T04:54:46.546Z,1.77
2019-03-04T04:57:12.876Z,1.70
2019-03-04T04:59:39.287Z,1.60
2019-03-04T05:02:05.725Z,1.47
2019-03-04T05:04:32.137Z,1.53
2019-03-04T05:06:58.233Z,1.40
2019-03-04T05:09:24.280Z,1.63
2019-03-04T05:11:50.367Z,1.90
2019-03-04T05:14:16.752Z,1.70
2019-03-04T05:16:43.496Z,1.97
2019-03-04T05:19:09.619Z,1.57
2019-03-04T05:21:35.697Z,1.80
2019-03-04T05:24:01.768Z,1.60
2019-03-04T05:26:27.840Z,1.60
2019-03-04T05:28:53.914Z,1.67
2019-03-04T05:31:20.244Z,1.67
2019-03-04T05:33:46.576Z,1.90
2019-03-04T05:36:12.904Z,2.07
2019-03-04T05:38:39.648Z,1.70
2019-03-04T05:41:05.703Z,1.73
2019-03-04T05:43:32.139Z,1.70
2019-03-04T05:45:58.212Z,1.20
2019-03-04T05:48:24.255Z,1.73
2019-03-04T05:50:50.381Z,1.67
2019-03-04T05:53:16.700Z,1.40
2019-03-04T05:55:42.764Z,1.43
2019-03-04T05:58:09.157Z,1.83
2019-03-04T06:00:39.886Z,1.50
2019-03-04T06:03:10.019Z,1.27
2019-03-04T06:05:36.173Z,1.40
2019-03-04T06:08:04.191Z,3.33
2019-03-04T06:10:30.603Z,1.87
2019-03-04T06:12:58.894Z,1.93
2019-03-04T06:15:25.035Z,1.50
2019-03-04T06:17:51.486Z,2.13
2019-03-04T06:20:18.599Z,2.00
2019-03-04T06:22:45.093Z,2.33
2019-03-04T06:25:13.403Z,1.40
2019-03-04T06:27:40.023Z,1.43
2019-03-04T06:30:09.909Z,1.70
2019-03-04T06:32:36.308Z,1.80
2019-03-04T06:35:05.360Z,1.70
2019-03-04T06:37:31.732Z,1.93
2019-03-04T06:39:57.809Z,2.20
2019-03-04T06:42:23.852Z,3.03
2019-03-04T06:44:50.619Z,1.23
2019-03-04T06:47:16.949Z,1.50
2019-03-04T06:49:43.029Z,2.67
2019-03-04T06:52:09.129Z,1.10
2019-03-04T06:54:43.557Z,1.53
2019-03-04T06:57:12.548Z,2.00
2019-03-04T06:59:40.863Z,1.60
2019-03-04T07:02:30.225Z,1.50
2019-03-04T07:05:18.324Z,1.57
2019-03-04T07:07:44.723Z,1.60
2019-03-04T07:10:11.058Z,1.77
2019-03-04T07:12:37.385Z,1.50
2019-03-04T07:15:06.073Z,1.97
2019-03-04T07:17:32.220Z,1.60
2019-03-04T07:20:10.917Z,1.50
2019-03-04T07:22:37.240Z,1.60
2019-03-04T07:25:07.171Z,2.13
2019-03-04T07:27:33.212Z,2.00
2019-03-04T07:29:59.632Z,1.50
2019-03-04T07:32:25.712Z,1.43
2019-03-04T07:34:51.764Z,1.50
2019-03-04T07:37:18.495Z,1.60
2019-03-04T07:39:44.828Z,2.10
2019-03-04T07:42:11.161Z,1.50
2019-03-04T07:44:37.210Z,1.57
2019-03-04T07:47:03.391Z,1.57
2019-03-04T07:49:29.645Z,1.60
2019-03-04T07:51:56.072Z,1.23
2019-03-04T07:54:22.415Z,1.37
2019-03-04T07:56:48.506Z,1.40
2019-03-04T07:59:14.552Z,1.70
2019-03-04T08:01:41.068Z,1.30
2019-03-04T08:04:07.152Z,1.40
2019-03-04T08:06:33.538Z,1.53
2019-03-04T08:09:21.236Z,1.77
2019-03-04T08:11:57.124Z,1.77
2019-03-04T08:14:23.171Z,1.50
2019-03-04T08:16:49.583Z,1.67
2019-03-04T08:19:15.908Z,1.83
2019-03-04T08:21:42.321Z,1.77
2019-03-04T08:24:08.431Z,1.67
2019-03-04T08:26:34.485Z,1.80
2019-03-04T08:29:00.926Z,1.60
2019-03-04T08:31:27.268Z,1.87
2019-03-04T08:33:53.594Z,1.70
2019-03-04T08:36:20.012Z,2.13
2019-03-04T08:38:46.764Z,1.17
2019-03-04T08:41:13.589Z,1.73
2019-03-04T08:43:39.704Z,1.37
2019-03-04T08:46:06.044Z,1.60
2019-03-04T08:48:32.096Z,1.57
2019-03-04T08:50:58.149Z,1.20
2019-03-04T08:53:24.231Z,1.70
2019-03-04T08:55:50.652Z,1.73
2019-03-04T08:58:16.757Z,1.57
2019-03-04T09:00:43.144Z,1.60
2019-03-04T09:03:09.641Z,1.50
2019-03-04T09:05:36.073Z,1.60
2019-03-04T09:08:02.907Z,1.47
2019-03-04T09:10:31.193Z,1.57
2019-03-04T09:12:57.241Z,1.60
2019-03-04T09:15:23.977Z,1.90
2019-03-04T09:17:50.152Z,1.80
2019-03-04T09:20:17.855Z,1.50
2019-03-04T09:22:44.186Z,1.43
2019-03-04T09:25:29.886Z,1.17
2019-03-04T09:27:51.505Z,1.40
2019-03-04T09:30:17.919Z,1.60
2019-03-04T09:32:44.381Z,1.50
2019-03-04T09:35:13.836Z,1.57
2019-03-04T09:37:40.248Z,1.63
2019-03-04T09:40:21.465Z,0.90
2019-03-04T09:42:51.496Z,1.10
2019-03-04T09:45:18.304Z,1.30
2019-03-04T09:47:44.590Z,1.13
2019-03-04T09:50:19.048Z,1.13
2019-03-04T09:52:45.797Z,1.47
2019-03-04T09:55:15.310Z,1.50
2019-03-04T09:57:41.633Z,1.40
2019-03-04T10:00:23.403Z,1.50
2019-03-04T10:02:51.736Z,1.23
2019-03-04T10:05:20.051Z,1.50
2019-03-04T10:07:55.939Z,1.53
2019-03-04T10:10:44.016Z,1.20
2019-03-04T10:13:13.908Z,1.80
2019-03-04T10:15:58.743Z,1.70
2019-03-04T10:18:37.662Z,1.63
2019-03-04T10:21:10.554Z,2.90
2019-03-04T10:24:05.552Z,1.37
2019-03-04T10:26:39.995Z,1.30
2019-03-04T10:29:29.511Z,1.90
2019-03-04T10:31:59.395Z,1.40
2019-03-04T10:34:43.957Z,1.50
2019-03-04T10:37:27.283Z,1.50
2019-03-04T10:40:15.694Z,1.40
2019-03-04T10:42:46.100Z,1.50
2019-03-04T10:45:23.151Z,1.50
2019-03-04T10:47:49.527Z,1.60
2019-03-04T10:50:15.874Z,1.20
2019-03-04T10:52:41.957Z,3.57
2019-03-04T10:55:10.432Z,1.90
2019-03-04T10:57:37.203Z,2.93
2019-03-04T11:00:18.586Z,1.43
2019-03-04T11:02:44.801Z,2.53
2019-03-04T11:05:13.015Z,2.00
2019-03-04T11:07:39.309Z,1.60
2019-03-04T11:10:09.563Z,1.50
2019-03-04T11:12:35.873Z,2.30
2019-03-04T11:15:17.137Z,3.23
2019-03-04T11:17:43.180Z,6.83
2019-03-04T11:20:09.622Z,8.23
2019-03-04T11:22:35.768Z,13.63
2019-03-04T11:25:03.441Z,8.03
2019-03-04T11:27:29.848Z,10.27
2019-03-04T11:29:56.409Z,12.23
2019-03-04T11:32:23.201Z,8.13
2019-03-04T11:34:49.247Z,16.77
2019-03-04T11:37:15.667Z,8.67
2019-03-04T11:39:46.430Z,17.33
2019-03-04T11:42:12.845Z,10.70
2019-03-04T11:44:39.352Z,8.13
2019-03-04T11:47:05.496Z,7.77
2019-03-04T11:49:31.808Z,13.13
2019-03-04T11:51:57.888Z,9.77
2019-03-04T11:54:23.936Z,8.60
2019-03-04T11:56:50.708Z,6.10
2019-03-04T11:59:16.828Z,11.37
2019-03-04T12:01:45.140Z,7.67
2019-03-04T12:04:11.364Z,11.80
2019-03-04T12:06:37.409Z,11.03
2019-03-04T12:09:07.384Z,4.30
2019-03-04T12:11:38.115Z,7.07
2019-03-04T12:14:03.298Z,7.17
2019-03-04T12:16:29.992Z,4.47
2019-03-04T12:18:56.086Z,5.00
2019-03-04T12:21:22.138Z,6.60
2019-03-04T12:23:48.603Z,5.60
2019-03-04T12:26:14.740Z,6.13
2019-03-04T12:28:41.080Z,4.40
2019-03-04T12:31:07.523Z,5.83
2019-03-04T12:33:33.608Z,3.83
2019-03-04T12:35:59.693Z,7.43
2019-03-04T12:38:26.099Z,3.33
2019-03-04T12:40:52.518Z,1.87
2019-03-04T12:43:19.087Z,3.60
2019-03-04T12:45:45.491Z,4.50
2019-03-04T12:48:11.541Z,2.70
2019-03-04T12:50:38.027Z,3.97
2019-03-04T12:53:04.775Z,3.13
2019-03-04T12:55:31.211Z,4.33
2019-03-04T12:57:57.327Z,1.90
2019-03-04T13:00:24.736Z,2.57
2019-03-04T13:02:57.436Z,1.43
2019-03-04T13:05:19.174Z,2.70
2019-03-04T13:07:46.451Z,1.40
2019-03-04T13:10:15.170Z,3.93
2019-03-04T13:12:43.205Z,1.97
2019-03-04T13:15:21.664Z,1.33
2019-03-04T13:17:48.503Z,0.83
2019-03-04T13:20:17.891Z,1.70
2019-03-04T13:22:44.453Z,2.10
2019-03-04T13:25:10.964Z,0.87
2019-03-04T13:27:38.232Z,1.57
2019-03-04T13:30:13.948Z,1.73
2019-03-04T13:32:39.996Z,2.73
2019-03-04T13:35:12.617Z,1.77
2019-03-04T13:37:39.219Z,1.20
2019-03-04T13:40:09.083Z,1.17
2019-03-04T13:42:35.151Z,3.03
2019-03-04T13:45:03.997Z,0.70
2019-03-04T13:47:30.422Z,2.77
2019-03-04T13:49:57.672Z,0.63
2019-03-04T13:52:23.800Z,1.63
2019-03-04T13:54:50.216Z,0.80
2019-03-04T13:57:16.562Z,0.93
2019-03-04T13:59:42.665Z,0.70
2019-03-04T14:02:08.715Z,1.33
2019-03-04T14:04:35.064Z,2.03
2019-03-04T14:07:01.209Z,1.70
2019-03-04T14:09:27.619Z,1.40
2019-03-04T14:11:54.660Z,2.97
2019-03-04T14:14:21.380Z,2.10
2019-03-04T14:16:47.516Z,0.90
2019-03-04T14:19:13.835Z,1.27
2019-03-04T14:21:40.267Z,1.30
2019-03-04T14:24:06.685Z,2.93
2019-03-04T14:26:32.848Z,1.13
2019-03-04T14:28:59.279Z,3.90
2019-03-04T14:31:25.693Z,4.13
2019-03-04T14:33:51.822Z,4.23
2019-03-04T14:36:17.855Z,4.07
2019-03-04T14:38:44.198Z,3.83
2019-03-04T14:41:10.745Z,5.47
2019-03-04T14:43:36.813Z,4.33
2019-03-04T14:46:04.181Z,5.43
2019-03-04T14:48:30.228Z,3.40
2019-03-04T14:50:56.276Z,3.50
2019-03-04T14:53:23.078Z,3.67
2019-03-04T14:55:49.531Z,5.80
2019-03-04T14:58:15.588Z,3.50
2019-03-04T15:00:43.700Z,3.40
2019-03-04T15:03:20.596Z,3.57
2019-03-04T15:05:38.548Z,4.40
2019-03-04T15:08:04.599Z,3.73
2019-03-04T15:10:30.817Z,4.53
2019-03-04T15:12:56.859Z,3.97
2019-03-04T15:15:31.116Z,3.97
2019-03-04T15:17:57.236Z,3.60
2019-03-04T15:20:26.146Z,3.77
2019-03-04T15:22:52.209Z,3.80
2019-03-04T15:25:27.184Z,2.77
2019-03-04T15:28:06.820Z,3.47
2019-03-04T15:30:32.937Z,3.80
2019-03-04T15:32:59.295Z,3.23
2019-03-04T15:35:25.416Z,3.50
2019-03-04T15:37:51.477Z,4.13
2019-03-04T15:40:17.528Z,2.50
2019-03-04T15:42:43.648Z,3.37
2019-03-04T15:45:13.907Z,2.70
2019-03-04T15:47:41.753Z,3.13
2019-03-04T15:50:09.951Z,3.10
2019-03-04T15:52:36.060Z,2.47
2019-03-04T15:55:04.216Z,2.60
2019-03-04T15:57:30.348Z,4.20
2019-03-04T15:59:56.771Z,2.80
2019-03-04T16:02:23.235Z,2.37
2019-03-04T16:04:49.741Z,6.70
2019-03-04T16:07:16.020Z,2.27
2019-03-04T16:09:42.400Z,2.30
2019-03-04T16:12:10.167Z,2.50
2019-03-04T16:14:36.216Z,2.60
2019-03-04T16:17:02.939Z,2.60
2019-03-04T16:19:28.972Z,1.70
2019-03-04T16:21:55.410Z,2.30
2019-03-04T16:24:21.821Z,2.87
2019-03-04T16:26:48.143Z,2.37
2019-03-04T16:29:14.255Z,1.90
2019-03-04T16:31:40.745Z,2.00
2019-03-04T16:34:07.159Z,2.40
2019-03-04T16:36:33.264Z,2.67
2019-03-04T16:38:59.707Z,3.00
2019-03-04T16:41:26.171Z,1.87
2019-03-04T16:43:52.225Z,1.70
2019-03-04T16:46:18.436Z,1.70
2019-03-04T16:48:44.483Z,2.47
2019-03-04T16:51:10.667Z,1.93
2019-03-04T16:53:36.768Z,2.07
2019-03-04T16:56:03.024Z,1.70
2019-03-04T16:58:29.304Z,1.83
2019-03-04T17:00:56.713Z,2.90
2019-03-04T17:03:23.191Z,2.37
2019-03-04T17:05:49.609Z,9.20
2019-03-04T17:08:16.151Z,2.30
2019-03-04T17:10:42.661Z,3.60
2019-03-04T17:13:08.711Z,9.57
2019-03-04T17:15:35.451Z,9.27
2019-03-04T17:18:01.905Z,6.20
2019-03-04T17:20:28.628Z,14.17
2019-03-04T17:22:54.736Z,24.50
2019-03-04T17:25:23.445Z,13.40
2019-03-04T17:27:49.491Z,10.03
2019-03-04T17:30:25.136Z,11.10
2019-03-04T17:32:51.540Z,14.83
2019-03-04T17:35:20.433Z,11.00
2019-03-04T17:37:47.169Z,8.63
2019-03-04T17:40:22.616Z,8.40
2019-03-04T17:42:49.532Z,7.43
2019-03-04T17:45:17.262Z,9.20
2019-03-04T17:47:43.955Z,9.67
2019-03-04T17:50:15.444Z,16.47
2019-03-04T17:52:41.480Z,9.60
2019-03-04T17:55:11.129Z,7.90
2019-03-04T17:57:39.012Z,6.93
2019-03-04T18:00:16.611Z,9.43
2019-03-04T18:02:42.651Z,10.97
2019-03-04T18:05:11.512Z,9.93
2019-03-04T18:07:37.985Z,5.60
2019-03-04T18:10:10.287Z,7.17
2019-03-04T18:12:36.336Z,8.20
2019-03-04T18:15:06.227Z,7.73
2019-03-04T18:17:32.276Z,5.17
2019-03-04T18:19:58.375Z,6.27
2019-03-04T18:22:24.813Z,7.00
2019-03-04T18:24:50.948Z,7.23
2019-03-04T18:27:17.098Z,9.37
2019-03-04T18:29:49.818Z,7.20
2019-03-04T18:32:38.013Z,9.20
2019-03-04T18:35:20.052Z,8.00
2019-03-04T18:38:04.937Z,7.73
2019-03-04T18:40:46.476Z,9.80
2019-03-04T18:43:24.351Z,8.60
2019-03-04T18:46:14.140Z,6.63
2019-03-04T18:48:56.233Z,6.10
2019-03-04T18:51:23.375Z,5.63
2019-03-04T18:53:51.144Z,6.97
2019-03-04T18:56:21.931Z,5.53
2019-03-04T18:58:45.264Z,6.33
2019-03-04T19:01:13.511Z,5.57
2019-03-04T19:03:39.621Z,5.33
2019-03-04T19:06:05.990Z,5.07
2019-03-04T19:08:32.032Z,7.30
2019-03-04T19:10:58.239Z,6.27
2019-03-04T19:13:24.972Z,9.23
2019-03-04T19:15:51.072Z,18.20
2019-03-04T19:18:17.413Z,18.33
2019-03-04T19:20:43.586Z,27.03
2019-03-04T19:23:09.968Z,27.60
2019-03-04T19:25:36.083Z,25.43
2019-03-04T19:28:02.280Z,18.73
2019-03-04T19:30:28.655Z,19.13
2019-03-04T19:32:54.752Z,20.57
2019-03-04T19:35:21.653Z,19.87
2019-03-04T19:37:47.757Z,25.23
2019-03-04T19:40:15.504Z,16.23
2019-03-04T19:42:41.554Z,17.20
2019-03-04T19:45:16.771Z,18.53
2019-03-04T19:47:43.883Z,19.53
2019-03-04T19:50:11.542Z,12.70
2019-03-04T19:52:37.894Z,12.03
2019-03-04T19:55:06.594Z,13.20
2019-03-04T19:57:32.923Z,14.10
2019-03-04T19:59:59.020Z,10.90
2019-03-04T20:02:25.124Z,9.73
2019-03-04T20:04:51.167Z,9.17
2019-03-04T20:07:17.523Z,11.47
2019-03-04T20:09:43.939Z,11.77
2019-03-04T20:12:10.388Z,10.30
2019-03-04T20:14:36.960Z,9.20
2019-03-04T20:17:03.253Z,8.80
2019-03-04T20:19:29.465Z,11.07
2019-03-04T20:21:55.808Z,7.60
2019-03-04T20:24:22.027Z,8.23
2019-03-04T20:26:48.128Z,7.80
2019-03-04T20:29:14.661Z,7.40
2019-03-04T20:31:40.906Z,11.13
2019-03-04T20:34:06.944Z,11.60
2019-03-04T20:36:33.094Z,21.43
2019-03-04T20:38:59.133Z,9.97
2019-03-04T20:41:25.340Z,12.97
2019-03-04T20:43:51.860Z,22.67
2019-03-04T20:46:18.101Z,8.13
2019-03-04T20:48:44.199Z,7.43
2019-03-04T20:51:10.248Z,5.60
2019-03-04T20:53:36.373Z,5.53
2019-03-04T20:56:02.960Z,6.60
2019-03-04T20:58:29.060Z,5.27
2019-03-04T21:00:55.104Z,5.50
2019-03-04T21:03:21.471Z,4.17
2019-03-04T21:05:47.515Z,8.77
2019-03-04T21:08:13.660Z,4.10
2019-03-04T21:10:39.862Z,4.83
2019-03-04T21:13:12.811Z,4.50
2019-03-04T21:15:38.856Z,5.43
2019-03-04T21:18:06.097Z,3.80
2019-03-04T21:20:32.852Z,5.33
2019-03-04T21:23:00.300Z,3.27
2019-03-04T21:25:41.557Z,3.97
2019-03-04T21:28:28.203Z,5.10
2019-03-04T21:30:58.051Z,4.20
2019-03-04T21:33:43.253Z,3.37
2019-03-04T21:36:41.899Z,3.70
2019-03-04T21:39:11.807Z,3.60
2019-03-04T21:41:41.896Z,3.10
2019-03-04T21:44:26.541Z,3.30
2019-03-04T21:46:59.742Z,3.30
2019-03-04T21:49:27.612Z,5.73
2019-03-04T21:52:20.191Z,5.10
2019-03-04T21:54:44.214Z,3.10
2019-03-04T21:57:17.231Z,2.30
2019-03-04T21:59:44.051Z,3.37
2019-03-04T22:02:16.869Z,2.63
2019-03-04T22:04:43.944Z,3.40
2019-03-04T22:07:13.410Z,3.00
2019-03-04T22:09:40.124Z,2.30
2019-03-04T22:12:10.028Z,1.90
2019-03-04T22:14:36.147Z,2.50
2019-03-04T22:17:02.336Z,2.00
2019-03-04T22:19:28.386Z,2.53
2019-03-04T22:21:54.459Z,2.00
2019-03-04T22:24:21.181Z,4.57
2019-03-04T22:26:47.507Z,2.00
2019-03-04T22:29:13.563Z,1.87
2019-03-04T22:31:39.686Z,3.30
2019-03-04T22:34:05.753Z,2.00
2019-03-04T22:36:31.916Z,1.77
2019-03-04T22:38:58.314Z,1.70
2019-03-04T22:41:24.361Z,2.10
2019-03-04T22:43:50.540Z,1.70
2019-03-04T22:46:16.593Z,1.80
2019-03-04T22:48:42.961Z,1.63
2019-03-04T22:51:09.581Z,1.93
2019-03-04T22:53:36.736Z,1.77
2019-03-04T22:56:03.863Z,2.50
2019-03-04T22:58:29.945Z,1.73
2019-03-04T23:01:01.727Z,1.60
2019-03-04T23:03:33.111Z,1.37
2019-03-04T23:06:18.272Z,1.57
2019-03-04T23:08:44.319Z,1.23
2019-03-04T23:11:10.735Z,1.33
2019-03-04T23:13:44.935Z,1.30
2019-03-04T23:16:14.824Z,0.90
2019-03-04T23:18:40.871Z,0.97
2019-03-04T23:21:07.620Z,1.23
2019-03-04T23:23:33.701Z,1.23
2019-03-04T23:25:59.748Z,0.87
2019-03-04T23:28:26.107Z,0.90
2019-03-04T23:30:52.529Z,1.23
2019-03-04T23:33:18.712Z,0.80
2019-03-04T23:35:44.797Z,1.13
2019-03-04T23:38:10.844Z,1.23
2019-03-04T23:40:37.259Z,1.07
2019-03-04T23:43:04.032Z,1.00
2019-03-04T23:45:30.407Z,0.73
2019-03-04T23:47:56.556Z,0.90
2019-03-04T23:50:24.163Z,0.80
2019-03-04T23:52:50.217Z,0.87
2019-03-04T23:55:16.296Z,0.90
2019-03-04T23:57:42.811Z,0.97
